sensor_id;sensor_type;location;lat;lon;timestamp;pressure;altitude;pressure_sealevel;temperature;humidity
56084;BME280;41958;52.416;13.428;2023-01-25T00:01:39;103242.59;;;1.94;88.28
56084;BME280;41958;52.416;13.428;2023-01-25T00:04:04;103239.22;;;2.10;87.41
56084;BME280;41958;52.416;13.428;2023-01-25T00:06:29;103228.81;;;2.12;86.82
56084;BME280;41958;52.416;13.428;2023-01-25T00:08:54;103228.28;;;2.04;87.19
56084;BME280;41958;52.416;13.428;2023-01-25T00:11:20;103216.88;;;2.00;87.45
56084;BME280;41958;52.416;13.428;2023-01-25T00:13:45;103212.03;;;1.95;87.20
56084;BME280;41958;52.416;13.428;2023-01-25T00:16:10;103209.81;;;2.04;88.34
56084;BME280;41958;52.416;13.428;2023-01-25T00:18:35;103199.84;;;2.03;87.33
56084;BME280;41958;52.416;13.428;2023-01-25T00:21:15;103205.59;;;2.01;87.16
56084;BME280;41958;52.416;13.428;2023-01-25T00:23:41;103197.16;;;2.15;87.64
56084;BME280;41958;52.416;13.428;2023-01-25T00:26:06;103201.84;;;2.14;87.50
56084;BME280;41958;52.416;13.428;2023-01-25T00:28:31;103191.88;;;2.13;87.57
56084;BME280;41958;52.416;13.428;2023-01-25T00:31:01;103181.09;;;2.12;88.02
56084;BME280;41958;52.416;13.428;2023-01-25T00:33:34;103172.47;;;2.20;87.89
56084;BME280;41958;52.416;13.428;2023-01-25T00:38:53;103157.81;;;2.19;88.80
56084;BME280;41958;52.416;13.428;2023-01-25T00:41:19;103144.66;;;2.22;88.17
56084;BME280;41958;52.416;13.428;2023-01-25T00:43:44;103134.44;;;2.22;88.44
56084;BME280;41958;52.416;13.428;2023-01-25T00:46:14;103133.00;;;2.19;88.32
56084;BME280;41958;52.416;13.428;2023-01-25T00:48:40;103112.81;;;2.07;87.76
56084;BME280;41958;52.416;13.428;2023-01-25T00:51:05;103128.94;;;2.22;87.87
56084;BME280;41958;52.416;13.428;2023-01-25T00:53:30;103125.19;;;2.16;87.33
56084;BME280;41958;52.416;13.428;2023-01-25T00:55:55;103122.28;;;2.11;87.80
56084;BME280;41958;52.416;13.428;2023-01-25T00:58:21;103125.19;;;2.16;88.72
56084;BME280;41958;52.416;13.428;2023-01-25T01:00:46;103123.88;;;2.19;88.55
56084;BME280;41958;52.416;13.428;2023-01-25T01:03:11;103110.09;;;2.19;89.97
56084;BME280;41958;52.416;13.428;2023-01-25T01:05:36;103120.22;;;2.25;88.85
56084;BME280;41958;52.416;13.428;2023-01-25T01:08:02;103125.94;;;2.24;88.55
56084;BME280;41958;52.416;13.428;2023-01-25T01:10:27;103122.09;;;2.25;89.27
56084;BME280;41958;52.416;13.428;2023-01-25T01:12:53;103124.88;;;2.25;88.65
56084;BME280;41958;52.416;13.428;2023-01-25T01:15:18;103130.75;;;2.28;88.99
56084;BME280;41958;52.416;13.428;2023-01-25T01:17:43;103130.28;;;2.31;88.57
56084;BME280;41958;52.416;13.428;2023-01-25T01:20:09;103123.16;;;2.24;87.42
56084;BME280;41958;52.416;13.428;2023-01-25T01:22:34;103128.56;;;2.18;87.26
56084;BME280;41958;52.416;13.428;2023-01-25T01:25:00;103136.84;;;2.18;89.11
56084;BME280;41958;52.416;13.428;2023-01-25T01:27:25;103133.75;;;2.27;88.31
56084;BME280;41958;52.416;13.428;2023-01-25T01:29:50;103127.88;;;2.23;88.02
56084;BME280;41958;52.416;13.428;2023-01-25T01:32:15;103121.50;;;2.23;87.72
56084;BME280;41958;52.416;13.428;2023-01-25T01:34:41;103122.63;;;2.33;87.64
56084;BME280;41958;52.416;13.428;2023-01-25T01:37:06;103120.78;;;2.27;88.39
56084;BME280;41958;52.416;13.428;2023-01-25T01:39:31;103119.72;;;2.28;87.35
56084;BME280;41958;52.416;13.428;2023-01-25T01:41:57;103120.50;;;2.17;88.93
56084;BME280;41958;52.416;13.428;2023-01-25T01:44:44;103124.72;;;2.19;89.35
56084;BME280;41958;52.416;13.428;2023-01-25T01:47:16;103120.06;;;2.20;88.26
56084;BME280;41958;52.416;13.428;2023-01-25T01:49:53;103119.69;;;2.16;88.12
56084;BME280;41958;52.416;13.428;2023-01-25T01:52:24;103121.97;;;2.19;88.73
56084;BME280;41958;52.416;13.428;2023-01-25T01:55:04;103114.44;;;2.27;88.08
56084;BME280;41958;52.416;13.428;2023-01-25T01:57:56;103115.91;;;2.41;88.17
56084;BME280;41958;52.416;13.428;2023-01-25T02:00:25;103110.16;;;2.43;87.80
56084;BME280;41958;52.416;13.428;2023-01-25T02:02:51;103114.59;;;2.44;88.59
56084;BME280;41958;52.416;13.428;2023-01-25T02:05:35;103103.81;;;2.42;88.19
56084;BME280;41958;52.416;13.428;2023-01-25T02:08:05;103119.25;;;2.31;87.71
56084;BME280;41958;52.416;13.428;2023-01-25T02:10:33;103118.03;;;2.27;88.84
56084;BME280;41958;52.416;13.428;2023-01-25T02:13:00;103114.69;;;2.25;88.35
56084;BME280;41958;52.416;13.428;2023-01-25T02:15:34;103112.13;;;2.24;89.27
56084;BME280;41958;52.416;13.428;2023-01-25T02:18:02;103113.00;;;2.36;88.77
56084;BME280;41958;52.416;13.428;2023-01-25T02:20:34;103112.91;;;2.43;88.01
56084;BME280;41958;52.416;13.428;2023-01-25T02:25:52;103099.13;;;2.43;88.60
56084;BME280;41958;52.416;13.428;2023-01-25T02:28:22;103099.72;;;2.45;89.96
56084;BME280;41958;52.416;13.428;2023-01-25T02:30:49;103097.69;;;2.40;90.35
56084;BME280;41958;52.416;13.428;2023-01-25T02:33:15;103102.84;;;2.36;90.39
56084;BME280;41958;52.416;13.428;2023-01-25T02:35:44;103100.66;;;2.39;90.41
56084;BME280;41958;52.416;13.428;2023-01-25T02:38:15;103098.38;;;2.35;89.82
56084;BME280;41958;52.416;13.428;2023-01-25T02:40:49;103099.00;;;2.38;90.13
56084;BME280;41958;52.416;13.428;2023-01-25T02:43:18;103090.72;;;2.38;89.75
56084;BME280;41958;52.416;13.428;2023-01-25T02:45:48;103092.53;;;2.44;90.82
56084;BME280;41958;52.416;13.428;2023-01-25T02:48:16;103095.91;;;2.46;90.13
56084;BME280;41958;52.416;13.428;2023-01-25T02:50:41;103086.53;;;2.47;89.99
56084;BME280;41958;52.416;13.428;2023-01-25T02:53:07;103086.75;;;2.45;90.75
56084;BME280;41958;52.416;13.428;2023-01-25T02:55:32;103079.59;;;2.44;91.21
56084;BME280;41958;52.416;13.428;2023-01-25T02:57:57;103064.69;;;2.33;91.09
56084;BME280;41958;52.416;13.428;2023-01-25T03:00:22;103080.25;;;2.28;90.84
56084;BME280;41958;52.416;13.428;2023-01-25T03:02:48;103076.16;;;2.30;91.29
56084;BME280;41958;52.416;13.428;2023-01-25T03:05:13;103074.16;;;2.38;91.25
56084;BME280;41958;52.416;13.428;2023-01-25T03:07:38;103072.84;;;2.40;90.97
56084;BME280;41958;52.416;13.428;2023-01-25T03:10:04;103076.94;;;2.38;91.65
56084;BME280;41958;52.416;13.428;2023-01-25T03:12:29;103076.78;;;2.32;93.31
56084;BME280;41958;52.416;13.428;2023-01-25T03:14:54;103069.72;;;2.36;92.59
56084;BME280;41958;52.416;13.428;2023-01-25T03:17:20;103068.41;;;2.39;92.10
56084;BME280;41958;52.416;13.428;2023-01-25T03:19:45;103065.66;;;2.39;91.87
56084;BME280;41958;52.416;13.428;2023-01-25T03:22:10;103065.03;;;2.37;91.73
56084;BME280;41958;52.416;13.428;2023-01-25T03:24:35;103065.28;;;2.35;91.74
56084;BME280;41958;52.416;13.428;2023-01-25T03:27:01;103057.22;;;2.34;91.23
56084;BME280;41958;52.416;13.428;2023-01-25T03:29:36;103058.44;;;2.38;90.98
56084;BME280;41958;52.416;13.428;2023-01-25T03:32:02;103041.41;;;2.29;91.48
56084;BME280;41958;52.416;13.428;2023-01-25T03:34:28;103061.69;;;2.35;92.21
56084;BME280;41958;52.416;13.428;2023-01-25T03:36:53;103064.56;;;2.40;92.00
56084;BME280;41958;52.416;13.428;2023-01-25T03:39:19;103053.03;;;2.31;91.96
56084;BME280;41958;52.416;13.428;2023-01-25T03:41:44;103038.13;;;2.21;92.73
56084;BME280;41958;52.416;13.428;2023-01-25T03:44:09;103050.88;;;2.33;93.08
56084;BME280;41958;52.416;13.428;2023-01-25T03:46:39;103047.88;;;2.35;92.70
56084;BME280;41958;52.416;13.428;2023-01-25T03:49:04;103051.97;;;2.32;92.56
56084;BME280;41958;52.416;13.428;2023-01-25T03:51:30;103050.88;;;2.33;92.66
56084;BME280;41958;52.416;13.428;2023-01-25T03:53:55;103052.09;;;2.38;92.82
56084;BME280;41958;52.416;13.428;2023-01-25T03:56:20;103041.75;;;2.33;92.85
56084;BME280;41958;52.416;13.428;2023-01-25T03:58:45;103043.69;;;2.32;93.78
56084;BME280;41958;52.416;13.428;2023-01-25T04:01:11;103033.44;;;2.21;93.88
56084;BME280;41958;52.416;13.428;2023-01-25T04:03:36;103039.81;;;2.22;94.03
56084;BME280;41958;52.416;13.428;2023-01-25T04:06:02;103031.06;;;2.25;94.99
56084;BME280;41958;52.416;13.428;2023-01-25T04:08:28;103024.94;;;2.23;94.61
56084;BME280;41958;52.416;13.428;2023-01-25T04:10:55;103009.09;;;2.18;95.05
56084;BME280;41958;52.416;13.428;2023-01-25T04:13:21;103015.72;;;2.29;94.07
56084;BME280;41958;52.416;13.428;2023-01-25T04:15:47;103011.63;;;2.31;93.90
56084;BME280;41958;52.416;13.428;2023-01-25T04:18:13;103007.09;;;2.25;94.58
56084;BME280;41958;52.416;13.428;2023-01-25T04:20:39;103006.72;;;2.22;94.68
56084;BME280;41958;52.416;13.428;2023-01-25T04:23:04;103000.94;;;2.23;94.59
56084;BME280;41958;52.416;13.428;2023-01-25T04:25:31;102995.19;;;2.25;94.65
56084;BME280;41958;52.416;13.428;2023-01-25T04:27:56;103003.56;;;2.18;95.03
56084;BME280;41958;52.416;13.428;2023-01-25T04:30:21;102992.06;;;2.21;96.35
56084;BME280;41958;52.416;13.428;2023-01-25T04:32:47;102989.44;;;2.26;95.84
56084;BME280;41958;52.416;13.428;2023-01-25T04:35:12;102984.41;;;2.23;95.83
56084;BME280;41958;52.416;13.428;2023-01-25T04:37:37;102987.78;;;2.25;95.34
56084;BME280;41958;52.416;13.428;2023-01-25T04:40:03;102973.75;;;2.27;95.15
56084;BME280;41958;52.416;13.428;2023-01-25T04:42:29;102972.63;;;2.28;95.77
56084;BME280;41958;52.416;13.428;2023-01-25T04:44:54;102975.63;;;2.26;95.42
56084;BME280;41958;52.416;13.428;2023-01-25T04:47:19;102977.81;;;2.24;94.95
56084;BME280;41958;52.416;13.428;2023-01-25T04:49:44;102974.09;;;2.18;96.29
56084;BME280;41958;52.416;13.428;2023-01-25T04:52:10;102966.03;;;2.17;96.94
56084;BME280;41958;52.416;13.428;2023-01-25T04:54:35;102968.34;;;2.20;97.16
56084;BME280;41958;52.416;13.428;2023-01-25T04:57:00;102968.69;;;2.24;96.69
56084;BME280;41958;52.416;13.428;2023-01-25T04:59:25;102970.13;;;2.26;95.74
56084;BME280;41958;52.416;13.428;2023-01-25T05:01:51;102956.47;;;2.31;96.24
56084;BME280;41958;52.416;13.428;2023-01-25T05:04:16;102948.28;;;2.25;96.66
56084;BME280;41958;52.416;13.428;2023-01-25T05:06:41;102953.09;;;2.17;97.06
56084;BME280;41958;52.416;13.428;2023-01-25T05:09:08;102955.38;;;2.21;97.42
56084;BME280;41958;52.416;13.428;2023-01-25T05:11:33;102946.41;;;2.25;97.17
56084;BME280;41958;52.416;13.428;2023-01-25T05:13:59;102946.03;;;2.33;97.53
56084;BME280;41958;52.416;13.428;2023-01-25T05:16:24;102948.06;;;2.26;97.21
56084;BME280;41958;52.416;13.428;2023-01-25T05:18:49;102940.97;;;2.30;97.71
56084;BME280;41958;52.416;13.428;2023-01-25T05:21:14;102940.63;;;2.27;97.22
56084;BME280;41958;52.416;13.428;2023-01-25T05:23:58;102949.72;;;2.27;97.40
56084;BME280;41958;52.416;13.428;2023-01-25T05:26:23;102939.19;;;2.24;98.03
56084;BME280;41958;52.416;13.428;2023-01-25T05:29:11;102929.81;;;2.13;98.55
56084;BME280;41958;52.416;13.428;2023-01-25T05:31:36;102942.19;;;2.23;98.84
56084;BME280;41958;52.416;13.428;2023-01-25T05:34:02;102944.47;;;2.26;97.49
56084;BME280;41958;52.416;13.428;2023-01-25T05:36:27;102949.38;;;2.24;97.63
56084;BME280;41958;52.416;13.428;2023-01-25T05:38:52;102948.28;;;2.25;97.85
56084;BME280;41958;52.416;13.428;2023-01-25T05:41:18;102940.84;;;2.13;98.73
56084;BME280;41958;52.416;13.428;2023-01-25T05:43:43;102940.25;;;2.23;98.41
56084;BME280;41958;52.416;13.428;2023-01-25T05:46:11;102941.09;;;2.12;99.10
56084;BME280;41958;52.416;13.428;2023-01-25T05:48:36;102944.94;;;2.11;98.92
56084;BME280;41958;52.416;13.428;2023-01-25T05:51:03;102947.81;;;2.16;99.36
56084;BME280;41958;52.416;13.428;2023-01-25T05:53:28;102948.16;;;2.08;98.93
56084;BME280;41958;52.416;13.428;2023-01-25T05:55:54;102953.44;;;2.09;98.57
56084;BME280;41958;52.416;13.428;2023-01-25T05:58:19;102949.72;;;2.15;99.99
56084;BME280;41958;52.416;13.428;2023-01-25T06:00:44;102944.94;;;2.23;99.31
56084;BME280;41958;52.416;13.428;2023-01-25T06:03:09;102950.47;;;2.23;98.44
56084;BME280;41958;52.416;13.428;2023-01-25T06:05:35;102941.09;;;2.24;97.55
56084;BME280;41958;52.416;13.428;2023-01-25T06:08:00;102935.22;;;2.20;97.16
56084;BME280;41958;52.416;13.428;2023-01-25T06:10:25;102932.59;;;2.25;97.45
56084;BME280;41958;52.416;13.428;2023-01-25T06:12:56;102920.69;;;2.13;97.53
56084;BME280;41958;52.416;13.428;2023-01-25T06:15:22;102929.72;;;2.20;98.09
56084;BME280;41958;52.416;13.428;2023-01-25T06:17:47;102928.50;;;2.16;98.19
56084;BME280;41958;52.416;13.428;2023-01-25T06:20:12;102927.41;;;2.17;98.12
56084;BME280;41958;52.416;13.428;2023-01-25T06:22:37;102920.47;;;2.14;97.99
56084;BME280;41958;52.416;13.428;2023-01-25T06:25:03;102925.22;;;1.95;98.11
56084;BME280;41958;52.416;13.428;2023-01-25T06:27:28;102920.22;;;2.04;98.94
56084;BME280;41958;52.416;13.428;2023-01-25T06:29:53;102920.34;;;2.09;97.76
56084;BME280;41958;52.416;13.428;2023-01-25T06:32:19;102916.38;;;2.17;97.07
56084;BME280;41958;52.416;13.428;2023-01-25T06:34:44;102917.72;;;2.14;97.75
56084;BME280;41958;52.416;13.428;2023-01-25T06:37:10;102912.53;;;2.06;98.07
56084;BME280;41958;52.416;13.428;2023-01-25T06:39:35;102923.34;;;2.08;98.06
56084;BME280;41958;52.416;13.428;2023-01-25T06:42:00;102926.09;;;2.08;98.73
56084;BME280;41958;52.416;13.428;2023-01-25T06:44:26;102937.13;;;1.96;98.93
56084;BME280;41958;52.416;13.428;2023-01-25T06:46:51;102935.22;;;2.08;99.15
56084;BME280;41958;52.416;13.428;2023-01-25T06:49:16;102928.38;;;2.11;99.39
56084;BME280;41958;52.416;13.428;2023-01-25T06:51:41;102930.75;;;2.07;99.01
56084;BME280;41958;52.416;13.428;2023-01-25T06:54:07;102919.72;;;2.07;100.00
56084;BME280;41958;52.416;13.428;2023-01-25T06:56:32;102915.66;;;2.10;99.54
56084;BME280;41958;52.416;13.428;2023-01-25T06:58:57;102908.22;;;2.10;99.30
56084;BME280;41958;52.416;13.428;2023-01-25T07:01:23;102900.94;;;2.16;99.60
56084;BME280;41958;52.416;13.428;2023-01-25T07:03:53;102897.31;;;2.04;99.46
56084;BME280;41958;52.416;13.428;2023-01-25T07:06:19;102885.81;;;2.07;99.49
56084;BME280;41958;52.416;13.428;2023-01-25T07:08:45;102891.28;;;1.83;100.00
56084;BME280;41958;52.416;13.428;2023-01-25T07:11:11;102886.84;;;1.94;100.00
56084;BME280;41958;52.416;13.428;2023-01-25T07:13:39;102886.75;;;1.89;100.00
56084;BME280;41958;52.416;13.428;2023-01-25T07:16:06;102879.09;;;2.02;100.00
56084;BME280;41958;52.416;13.428;2023-01-25T07:18:33;102880.53;;;2.05;99.76
56084;BME280;41958;52.416;13.428;2023-01-25T07:21:21;102886.63;;;2.07;99.45
56084;BME280;41958;52.416;13.428;2023-01-25T07:23:48;102874.53;;;2.08;99.85
56084;BME280;41958;52.416;13.428;2023-01-25T07:26:23;102884.94;;;2.06;100.00
56084;BME280;41958;52.416;13.428;2023-01-25T07:28:49;102873.91;;;1.82;99.89
56084;BME280;41958;52.416;13.428;2023-01-25T07:31:16;102880.28;;;1.95;100.00
56084;BME280;41958;52.416;13.428;2023-01-25T07:33:41;102874.75;;;1.83;99.97
56084;BME280;41958;52.416;13.428;2023-01-25T07:36:08;102871.88;;;1.90;100.00
56084;BME280;41958;52.416;13.428;2023-01-25T07:38:35;102868.78;;;1.86;100.00
56084;BME280;41958;52.416;13.428;2023-01-25T07:41:00;102865.66;;;1.82;100.00
56084;BME280;41958;52.416;13.428;2023-01-25T07:43:26;102869.25;;;1.95;100.00
56084;BME280;41958;52.416;13.428;2023-01-25T07:45:52;102860.16;;;1.94;100.00
56084;BME280;41958;52.416;13.428;2023-01-25T07:48:18;102859.53;;;1.92;100.00
56084;BME280;41958;52.416;13.428;2023-01-25T07:50:44;102849.00;;;1.89;100.00
56084;BME280;41958;52.416;13.428;2023-01-25T07:53:35;102854.13;;;1.74;100.00
56084;BME280;41958;52.416;13.428;2023-01-25T07:56:00;102855.09;;;1.79;100.00
56084;BME280;41958;52.416;13.428;2023-01-25T07:58:26;102852.44;;;1.84;100.00
56084;BME280;41958;52.416;13.428;2023-01-25T08:00:51;102852.22;;;1.98;100.00
56084;BME280;41958;52.416;13.428;2023-01-25T08:03:16;102849.13;;;1.94;100.00
56084;BME280;41958;52.416;13.428;2023-01-25T08:05:44;102839.16;;;1.93;100.00
56084;BME280;41958;52.416;13.428;2023-01-25T08:08:10;102843.31;;;1.72;100.00
56084;BME280;41958;52.416;13.428;2023-01-25T08:10:35;102843.81;;;1.81;100.00
56084;BME280;41958;52.416;13.428;2023-01-25T08:13:00;102840.09;;;1.87;100.00
56084;BME280;41958;52.416;13.428;2023-01-25T08:15:25;102839.03;;;1.88;100.00
56084;BME280;41958;52.416;13.428;2023-01-25T08:17:51;102834.47;;;1.94;100.00
56084;BME280;41958;52.416;13.428;2023-01-25T08:20:16;102830.28;;;1.91;100.00
56084;BME280;41958;52.416;13.428;2023-01-25T08:22:41;102818.31;;;1.74;99.72
56084;BME280;41958;52.416;13.428;2023-01-25T08:25:07;102828.13;;;1.81;100.00
56084;BME280;41958;52.416;13.428;2023-01-25T08:27:32;102832.78;;;1.69;100.00
56084;BME280;41958;52.416;13.428;2023-01-25T08:29:57;102829.56;;;1.84;100.00
56084;BME280;41958;52.416;13.428;2023-01-25T08:32:23;102822.13;;;1.84;100.00
56084;BME280;41958;52.416;13.428;2023-01-25T08:34:48;102819.03;;;1.81;100.00
56084;BME280;41958;52.416;13.428;2023-01-25T08:37:13;102815.19;;;1.82;100.00
56084;BME280;41958;52.416;13.428;2023-01-25T08:39:38;102819.59;;;1.83;100.00
56084;BME280;41958;52.416;13.428;2023-01-25T08:42:04;102827.88;;;1.83;100.00
56084;BME280;41958;52.416;13.428;2023-01-25T08:44:30;102819.72;;;1.88;100.00
56084;BME280;41958;52.416;13.428;2023-01-25T08:46:55;102825.34;;;1.81;100.00
56084;BME280;41958;52.416;13.428;2023-01-25T08:49:20;102813.25;;;1.71;100.00
56084;BME280;41958;52.416;13.428;2023-01-25T08:51:46;102818.41;;;1.67;100.00
56084;BME280;41958;52.416;13.428;2023-01-25T08:54:12;102815.31;;;1.75;100.00
56084;BME280;41958;52.416;13.428;2023-01-25T08:56:39;102821.88;;;1.62;100.00
56084;BME280;41958;52.416;13.428;2023-01-25T08:59:04;102817.19;;;1.75;100.00
56084;BME280;41958;52.416;13.428;2023-01-25T09:01:30;102814.81;;;1.78;100.00
56084;BME280;41958;52.416;13.428;2023-01-25T09:03:55;102818.31;;;1.74;100.00
56084;BME280;41958;52.416;13.428;2023-01-25T09:06:21;102817.34;;;1.80;100.00
56084;BME280;41958;52.416;13.428;2023-01-25T09:08:46;102820.81;;;1.75;100.00
56084;BME280;41958;52.416;13.428;2023-01-25T09:11:14;102823.56;;;1.75;100.00
56084;BME280;41958;52.416;13.428;2023-01-25T09:13:40;102818.28;;;1.85;100.00
56084;BME280;41958;52.416;13.428;2023-01-25T09:16:10;102819.59;;;1.83;100.00
56084;BME280;41958;52.416;13.428;2023-01-25T09:18:37;102813.38;;;1.76;100.00
56084;BME280;41958;52.416;13.428;2023-01-25T09:21:13;102810.63;;;1.76;100.00
56084;BME280;41958;52.416;13.428;2023-01-25T09:23:39;102815.03;;;1.65;100.00
56084;BME280;41958;52.416;13.428;2023-01-25T09:26:04;102819.81;;;1.69;100.00
56084;BME280;41958;52.416;13.428;2023-01-25T09:28:32;102818.88;;;1.76;100.00
56084;BME280;41958;52.416;13.428;2023-01-25T09:30:59;102808.81;;;1.69;100.00
56084;BME280;41958;52.416;13.428;2023-01-25T09:33:26;102812.66;;;1.68;100.00
56084;BME280;41958;52.416;13.428;2023-01-25T09:35:52;102807.03;;;1.75;100.00
56084;BME280;41958;52.416;13.428;2023-01-25T09:38:18;102806.19;;;1.75;100.00
56084;BME280;41958;52.416;13.428;2023-01-25T09:41:03;102803.06;;;1.71;100.00
56084;BME280;41958;52.416;13.428;2023-01-25T09:43:53;102792.16;;;1.76;100.00
56084;BME280;41958;52.416;13.428;2023-01-25T09:46:44;102796.38;;;1.67;100.00
56084;BME280;41958;52.416;13.428;2023-01-25T09:49:20;102794.91;;;1.76;100.00
56084;BME280;41958;52.416;13.428;2023-01-25T09:52:35;102784.59;;;1.72;100.00
56084;BME280;41958;52.416;13.428;2023-01-25T09:54:48;102785.31;;;1.79;100.00
56084;BME280;41958;52.416;13.428;2023-01-25T09:57:18;102788.19;;;1.72;100.00
56084;BME280;41958;52.416;13.428;2023-01-25T09:59:47;102778.38;;;1.76;100.00
56084;BME280;41958;52.416;13.428;2023-01-25T10:02:44;102785.44;;;1.84;100.00
56084;BME280;41958;52.416;13.428;2023-01-25T10:05:15;102786.88;;;1.75;100.00
56084;BME280;41958;52.416;13.428;2023-01-25T10:07:52;102784.00;;;1.81;100.00
56084;BME280;41958;52.416;13.428;2023-01-25T10:10:23;102773.72;;;1.77;100.00
56084;BME280;41958;52.416;13.428;2023-01-25T10:12:52;102776.22;;;1.90;100.00
56084;BME280;41958;52.416;13.428;2023-01-25T10:15:20;102765.53;;;1.94;100.00
56084;BME280;41958;52.416;13.428;2023-01-25T10:17:51;102767.59;;;1.75;100.00
56084;BME280;41958;52.416;13.428;2023-01-25T10:20:33;102770.72;;;1.90;100.00
56084;BME280;41958;52.416;13.428;2023-01-25T10:23:26;102760.75;;;1.89;100.00
56084;BME280;41958;52.416;13.428;2023-01-25T10:26:00;102757.28;;;1.82;100.00
56084;BME280;41958;52.416;13.428;2023-01-25T10:28:44;102746.50;;;1.68;100.00
56084;BME280;41958;52.416;13.428;2023-01-25T10:33:55;102731.63;;;1.69;100.00
56084;BME280;41958;52.416;13.428;2023-01-25T10:36:26;102736.69;;;1.73;100.00
56084;BME280;41958;52.416;13.428;2023-01-25T10:38:53;102726.25;;;1.63;100.00
56084;BME280;41958;52.416;13.428;2023-01-25T10:41:39;102725.53;;;1.67;100.00
56084;BME280;41958;52.416;13.428;2023-01-25T10:44:10;102731.75;;;1.75;100.00
56084;BME280;41958;52.416;13.428;2023-01-25T10:47:14;102717.59;;;1.83;100.00
56084;BME280;41958;52.416;13.428;2023-01-25T10:49:46;102721.47;;;1.82;100.00
56084;BME280;41958;52.416;13.428;2023-01-25T10:52:28;102721.09;;;1.55;100.00
56084;BME280;41958;52.416;13.428;2023-01-25T10:55:17;102712.81;;;1.66;100.00
56084;BME280;41958;52.416;13.428;2023-01-25T10:57:49;102706.00;;;1.69;100.00
56084;BME280;41958;52.416;13.428;2023-01-25T11:00:27;102709.56;;;1.69;100.00
56084;BME280;41958;52.416;13.428;2023-01-25T11:02:53;102697.97;;;1.67;100.00
56084;BME280;41958;52.416;13.428;2023-01-25T11:05:35;102698.66;;;1.75;100.00
56084;BME280;41958;52.416;13.428;2023-01-25T11:08:21;102706.47;;;1.78;100.00
56084;BME280;41958;52.416;13.428;2023-01-25T11:10:47;102688.59;;;1.80;100.00
56084;BME280;41958;52.416;13.428;2023-01-25T11:15:42;102682.38;;;1.73;100.00
56084;BME280;41958;52.416;13.428;2023-01-25T11:18:25;102675.91;;;1.79;100.00
56084;BME280;41958;52.416;13.428;2023-01-25T11:21:12;102674.69;;;1.87;100.00
56084;BME280;41958;52.416;13.428;2023-01-25T11:23:43;102670.72;;;1.83;100.00
56084;BME280;41958;52.416;13.428;2023-01-25T11:28:40;102652.97;;;1.91;100.00
56084;BME280;41958;52.416;13.428;2023-01-25T11:31:22;102648.66;;;1.95;100.00
56084;BME280;41958;52.416;13.428;2023-01-25T11:33:47;102651.22;;;1.73;100.00
56084;BME280;41958;52.416;13.428;2023-01-25T11:41:57;102627.00;;;1.75;100.00
56084;BME280;41958;52.416;13.428;2023-01-25T11:44:58;102615.28;;;1.67;100.00
56084;BME280;41958;52.416;13.428;2023-01-25T11:53:21;102617.81;;;1.57;100.00
56084;BME280;41958;52.416;13.428;2023-01-25T11:56:10;102599.72;;;1.61;100.00
56084;BME280;41958;52.416;13.428;2023-01-25T12:01:35;102582.78;;;1.69;100.00
56084;BME280;41958;52.416;13.428;2023-01-25T12:07:03;102574.16;;;1.78;100.00
56084;BME280;41958;52.416;13.428;2023-01-25T12:09:45;102565.16;;;1.82;100.00
56084;BME280;41958;52.416;13.428;2023-01-25T12:12:34;102553.91;;;1.72;100.00
56084;BME280;41958;52.416;13.428;2023-01-25T12:23:39;102529.59;;;1.69;100.00
56084;BME280;41958;52.416;13.428;2023-01-25T12:26:19;102533.69;;;1.66;100.00
56084;BME280;41958;52.416;13.428;2023-01-25T12:28:52;102517.16;;;1.66;100.00
56084;BME280;41958;52.416;13.428;2023-01-25T12:31:23;102514.88;;;1.63;100.00
56084;BME280;41958;52.416;13.428;2023-01-25T12:34:00;102520.28;;;1.58;100.00
56084;BME280;41958;52.416;13.428;2023-01-25T12:36:42;102511.88;;;1.65;100.00
56084;BME280;41958;52.416;13.428;2023-01-25T12:39:13;102506.97;;;1.67;100.00
56084;BME280;41958;52.416;13.428;2023-01-25T12:41:52;102499.78;;;1.66;100.00
56084;BME280;41958;52.416;13.428;2023-01-25T12:49:55;102497.28;;;1.64;100.00
56084;BME280;41958;52.416;13.428;2023-01-25T12:52:30;102494.66;;;1.58;100.00
56084;BME280;41958;52.416;13.428;2023-01-25T12:54:59;102486.00;;;1.66;100.00
56084;BME280;41958;52.416;13.428;2023-01-25T12:57:32;102486.16;;;1.59;100.00
56084;BME280;41958;52.416;13.428;2023-01-25T13:00:29;102473.91;;;1.67;100.00
56084;BME280;41958;52.416;13.428;2023-01-25T13:03:19;102477.59;;;1.73;100.00
56084;BME280;41958;52.416;13.428;2023-01-25T13:05:52;102476.31;;;1.63;100.00
56084;BME280;41958;52.416;13.428;2023-01-25T13:11:13;102472.72;;;1.63;100.00
56084;BME280;41958;52.416;13.428;2023-01-25T13:13:40;102474.63;;;1.62;100.00
56084;BME280;41958;52.416;13.428;2023-01-25T13:18:52;102473.81;;;1.62;100.00
56084;BME280;41958;52.416;13.428;2023-01-25T13:24:17;102460.44;;;1.71;100.00
56084;BME280;41958;52.416;13.428;2023-01-25T13:31:58;102451.34;;;1.70;100.00
56084;BME280;41958;52.416;13.428;2023-01-25T13:36:58;102440.38;;;1.58;100.00
56084;BME280;41958;52.416;13.428;2023-01-25T13:41:59;102426.19;;;1.66;100.00
56084;BME280;41958;52.416;13.428;2023-01-25T13:44:27;102427.38;;;1.71;100.00
56084;BME280;41958;52.416;13.428;2023-01-25T13:46:58;102427.63;;;1.69;100.00
56084;BME280;41958;52.416;13.428;2023-01-25T13:49:29;102421.28;;;1.68;100.00
56084;BME280;41958;52.416;13.428;2023-01-25T13:51:58;102428.78;;;1.73;100.00
56084;BME280;41958;52.416;13.428;2023-01-25T13:54:23;102419.50;;;1.62;100.00
56084;BME280;41958;52.416;13.428;2023-01-25T13:57:02;102417.09;;;1.66;100.00
56084;BME280;41958;52.416;13.428;2023-01-25T13:59:27;102400.31;;;1.67;100.00